sensor_id;sensor_type;location;lat;lon;timestamp;pressure;altitude;pressure_sealevel;temperature;humidity
70445;BME280;57902;49.638;11.070;2022-10-31T00:00:45;98784.06;;;10.41;100.00
70445;BME280;57902;49.638;11.070;2022-10-31T00:03:12;98790.19;;;10.36;100.00
70445;BME280;57902;49.638;11.070;2022-10-31T00:05:43;98788.50;;;10.35;100.00
70445;BME280;57902;49.638;11.070;2022-10-31T00:08:10;98789.34;;;10.35;100.00
70445;BME280;57902;49.638;11.070;2022-10-31T00:10:43;98781.66;;;10.30;100.00
70445;BME280;57902;49.638;11.070;2022-10-31T00:13:11;98787.53;;;10.40;100.00
70445;BME280;57902;49.638;11.070;2022-10-31T00:15:39;98775.59;;;10.33;100.00
70445;BME280;57902;49.638;11.070;2022-10-31T00:18:07;98773.94;;;10.30;100.00
70445;BME280;57902;49.638;11.070;2022-10-31T00:20:34;98778.28;;;10.28;100.00
70445;BME280;57902;49.638;11.070;2022-10-31T00:23:01;98770.59;;;10.27;100.00
70445;BME280;57902;49.638;11.070;2022-10-31T00:25:29;98770.59;;;10.27;100.00
70445;BME280;57902;49.638;11.070;2022-10-31T00:27:58;98773.09;;;10.30;100.00
70445;BME280;57902;49.638;11.070;2022-10-31T00:30:25;98773.94;;;10.30;100.00
70445;BME280;57902;49.638;11.070;2022-10-31T00:32:52;98771.31;;;10.33;100.00
70445;BME280;57902;49.638;11.070;2022-10-31T00:35:18;98773.91;;;10.33;100.00
70445;BME280;57902;49.638;11.070;2022-10-31T00:37:45;98763.56;;;10.37;100.00
70445;BME280;57902;49.638;11.070;2022-10-31T00:40:11;98769.56;;;10.36;100.00
70445;BME280;57902;49.638;11.070;2022-10-31T00:42:41;98772.19;;;10.32;100.00
70445;BME280;57902;49.638;11.070;2022-10-31T00:45:09;98765.28;;;10.33;100.00
70445;BME280;57902;49.638;11.070;2022-10-31T00:47:36;98766.13;;;10.37;100.00
70445;BME280;57902;49.638;11.070;2022-10-31T00:50:05;98769.63;;;10.32;100.00
70445;BME280;57902;49.638;11.070;2022-10-31T00:52:31;98768.06;;;10.24;100.00
70445;BME280;57902;49.638;11.070;2022-10-31T00:54:58;98764.69;;;10.20;100.00
70445;BME280;57902;49.638;11.070;2022-10-31T00:57:24;98771.66;;;10.16;100.00
70445;BME280;57902;49.638;11.070;2022-10-31T00:59:51;98772.53;;;10.15;100.00
70445;BME280;57902;49.638;11.070;2022-10-31T01:02:17;98769.13;;;10.13;100.00
70445;BME280;57902;49.638;11.070;2022-10-31T01:04:44;98766.66;;;10.09;100.00
70445;BME280;57902;49.638;11.070;2022-10-31T01:07:10;98770.09;;;10.08;100.00
70445;BME280;57902;49.638;11.070;2022-10-31T01:09:38;98770.16;;;10.05;100.00
70445;BME280;57902;49.638;11.070;2022-10-31T01:12:05;98764.22;;;10.01;100.00
70445;BME280;57902;49.638;11.070;2022-10-31T01:14:31;98760.88;;;9.97;100.00
70445;BME280;57902;49.638;11.070;2022-10-31T01:16:57;98769.66;;;9.87;100.00
70445;BME280;57902;49.638;11.070;2022-10-31T01:19:24;98774.03;;;9.82;100.00
70445;BME280;57902;49.638;11.070;2022-10-31T01:21:54;98761.22;;;9.77;100.00
70445;BME280;57902;49.638;11.070;2022-10-31T01:24:20;98775.00;;;9.76;100.00
70445;BME280;57902;49.638;11.070;2022-10-31T01:26:47;98774.97;;;9.78;100.00
70445;BME280;57902;49.638;11.070;2022-10-31T01:29:13;98777.59;;;9.75;100.00
70445;BME280;57902;49.638;11.070;2022-10-31T01:31:40;98772.50;;;9.72;100.00
70445;BME280;57902;49.638;11.070;2022-10-31T01:34:06;98775.06;;;9.72;100.00
70445;BME280;57902;49.638;11.070;2022-10-31T01:36:35;98776.81;;;9.71;100.00
70445;BME280;57902;49.638;11.070;2022-10-31T01:39:05;98774.13;;;9.76;100.00
70445;BME280;57902;49.638;11.070;2022-10-31T01:41:34;98776.72;;;9.76;100.00
70445;BME280;57902;49.638;11.070;2022-10-31T01:44:46;98780.19;;;9.75;100.00
70445;BME280;57902;49.638;11.070;2022-10-31T01:47:11;98774.94;;;9.79;100.00
70445;BME280;57902;49.638;11.070;2022-10-31T01:49:47;98781.13;;;9.71;100.00
70445;BME280;57902;49.638;11.070;2022-10-31T01:52:17;98775.22;;;9.64;100.00
70445;BME280;57902;49.638;11.070;2022-10-31T01:54:48;98771.00;;;9.60;100.00
70445;BME280;57902;49.638;11.070;2022-10-31T01:57:18;98782.25;;;9.56;100.00
70445;BME280;57902;49.638;11.070;2022-10-31T01:59:49;98779.66;;;9.56;100.00
70445;BME280;57902;49.638;11.070;2022-10-31T02:02:18;98777.97;;;9.53;100.00
70445;BME280;57902;49.638;11.070;2022-10-31T02:04:47;98782.31;;;9.50;100.00
70445;BME280;57902;49.638;11.070;2022-10-31T02:07:14;98786.63;;;9.49;100.00
70445;BME280;57902;49.638;11.070;2022-10-31T02:09:43;98784.06;;;9.49;100.00
70445;BME280;57902;49.638;11.070;2022-10-31T02:12:11;98781.47;;;9.49;100.00
70445;BME280;57902;49.638;11.070;2022-10-31T02:14:38;98781.44;;;9.52;100.00
70445;BME280;57902;49.638;11.070;2022-10-31T02:17:06;98787.38;;;9.54;100.00
70445;BME280;57902;49.638;11.070;2022-10-31T02:28:34;98783.84;;;9.60;100.00
70445;BME280;57902;49.638;11.070;2022-10-31T02:31:36;98782.13;;;9.62;100.00
70445;BME280;57902;49.638;11.070;2022-10-31T02:36:53;98775.28;;;9.59;100.00
70445;BME280;57902;49.638;11.070;2022-10-31T02:39:26;98765.84;;;9.60;100.00
70445;BME280;57902;49.638;11.070;2022-10-31T02:42:04;98771.84;;;9.60;100.00
70445;BME280;57902;49.638;11.070;2022-10-31T02:44:36;98771.88;;;9.59;100.00
70445;BME280;57902;49.638;11.070;2022-10-31T02:47:12;98770.97;;;9.61;100.00
70445;BME280;57902;49.638;11.070;2022-10-31T02:49:48;98766.69;;;9.62;100.00
70445;BME280;57902;49.638;11.070;2022-10-31T02:52:24;98764.94;;;9.62;100.00
70445;BME280;57902;49.638;11.070;2022-10-31T02:54:52;98755.47;;;9.64;100.00
70445;BME280;57902;49.638;11.070;2022-10-31T02:57:29;98758.88;;;9.67;100.00
70445;BME280;57902;49.638;11.070;2022-10-31T03:00:03;98763.19;;;9.66;100.00
70445;BME280;57902;49.638;11.070;2022-10-31T03:10:57;98759.00;;;9.60;100.00
70445;BME280;57902;49.638;11.070;2022-10-31T03:13:51;98763.25;;;9.60;100.00
70445;BME280;57902;49.638;11.070;2022-10-31T03:19:01;98761.59;;;9.59;100.00
70445;BME280;57902;49.638;11.070;2022-10-31T03:21:41;98773.69;;;9.54;100.00
70445;BME280;57902;49.638;11.070;2022-10-31T03:24:11;98773.81;;;9.46;100.00
70445;BME280;57902;49.638;11.070;2022-10-31T03:26:44;98766.16;;;9.43;100.00
70445;BME280;57902;49.638;11.070;2022-10-31T03:29:15;98776.47;;;9.41;100.00
70445;BME280;57902;49.638;11.070;2022-10-31T03:31:50;98773.06;;;9.39;100.00
70445;BME280;57902;49.638;11.070;2022-10-31T03:34:19;98768.00;;;9.35;100.00
70445;BME280;57902;49.638;11.070;2022-10-31T03:36:50;98769.75;;;9.33;100.00
70445;BME280;57902;49.638;11.070;2022-10-31T03:39:22;98772.34;;;9.31;100.00
70445;BME280;57902;49.638;11.070;2022-10-31T03:42:20;98777.53;;;9.30;100.00
70445;BME280;57902;49.638;11.070;2022-10-31T03:44:57;98775.81;;;9.28;100.00
70445;BME280;57902;49.638;11.070;2022-10-31T03:47:32;98779.25;;;9.27;100.00
70445;BME280;57902;49.638;11.070;2022-10-31T03:50:03;98779.19;;;9.32;100.00
70445;BME280;57902;49.638;11.070;2022-10-31T03:52:38;98782.78;;;9.22;100.00
70445;BME280;57902;49.638;11.070;2022-10-31T03:55:17;98785.47;;;9.14;100.00
70445;BME280;57902;49.638;11.070;2022-10-31T03:58:01;98788.91;;;9.16;100.00
70445;BME280;57902;49.638;11.070;2022-10-31T04:00:31;98792.25;;;9.20;100.00
70445;BME280;57902;49.638;11.070;2022-10-31T04:05:42;98778.03;;;8.99;100.00
70445;BME280;57902;49.638;11.070;2022-10-31T04:08:14;98778.94;;;8.95;100.00
70445;BME280;57902;49.638;11.070;2022-10-31T04:10:43;98774.69;;;8.92;100.00
70445;BME280;57902;49.638;11.070;2022-10-31T04:13:17;98776.47;;;8.88;100.00
70445;BME280;57902;49.638;11.070;2022-10-31T04:15:52;98775.56;;;8.89;100.00
70445;BME280;57902;49.638;11.070;2022-10-31T04:18:22;98776.41;;;8.91;100.00
70445;BME280;57902;49.638;11.070;2022-10-31T04:21:02;98766.13;;;8.91;100.00
70445;BME280;57902;49.638;11.070;2022-10-31T04:23:29;98767.00;;;8.90;100.00
70445;BME280;57902;49.638;11.070;2022-10-31T04:25:56;98766.13;;;8.91;100.00
70445;BME280;57902;49.638;11.070;2022-10-31T04:28:23;98761.78;;;8.93;100.00
70445;BME280;57902;49.638;11.070;2022-10-31T04:30:49;98766.06;;;8.95;100.00
70445;BME280;57902;49.638;11.070;2022-10-31T04:33:16;98761.78;;;8.93;100.00
70445;BME280;57902;49.638;11.070;2022-10-31T04:35:43;98764.41;;;8.90;100.00
70445;BME280;57902;49.638;11.070;2022-10-31T04:38:10;98760.22;;;8.85;100.00
70445;BME280;57902;49.638;11.070;2022-10-31T04:40:36;98762.81;;;8.83;100.00
70445;BME280;57902;49.638;11.070;2022-10-31T04:43:03;98762.75;;;8.86;100.00
70445;BME280;57902;49.638;11.070;2022-10-31T04:45:30;98761.91;;;8.86;100.00
70445;BME280;57902;49.638;11.070;2022-10-31T04:47:56;98760.25;;;8.82;100.00
70445;BME280;57902;49.638;11.070;2022-10-31T04:50:23;98757.72;;;8.80;100.00
70445;BME280;57902;49.638;11.070;2022-10-31T04:52:50;98754.34;;;8.75;100.00
70445;BME280;57902;49.638;11.070;2022-10-31T04:55:16;98754.41;;;8.72;100.00
70445;BME280;57902;49.638;11.070;2022-10-31T04:57:44;98756.97;;;8.72;100.00
70445;BME280;57902;49.638;11.070;2022-10-31T05:00:12;98756.13;;;8.71;100.00
70445;BME280;57902;49.638;11.070;2022-10-31T05:02:50;98757.91;;;8.65;100.00
70445;BME280;57902;49.638;11.070;2022-10-31T05:05:19;98756.22;;;8.65;100.00
70445;BME280;57902;49.638;11.070;2022-10-31T05:07:47;98753.69;;;8.64;100.00
70445;BME280;57902;49.638;11.070;2022-10-31T05:10:18;98754.53;;;8.63;100.00
70445;BME280;57902;49.638;11.070;2022-10-31T05:12:54;98754.59;;;8.60;100.00
70445;BME280;57902;49.638;11.070;2022-10-31T05:15:22;98754.56;;;8.61;100.00
70445;BME280;57902;49.638;11.070;2022-10-31T05:17:49;98754.59;;;8.60;100.00
70445;BME280;57902;49.638;11.070;2022-10-31T05:20:17;98758.94;;;8.56;100.00
70445;BME280;57902;49.638;11.070;2022-10-31T05:22:52;98760.75;;;8.46;100.00
70445;BME280;57902;49.638;11.070;2022-10-31T05:25:21;98761.69;;;8.37;100.00
70445;BME280;57902;49.638;11.070;2022-10-31T05:27:48;98767.78;;;8.30;100.00
70445;BME280;57902;49.638;11.070;2022-10-31T05:30:18;98761.91;;;8.20;100.00
70445;BME280;57902;49.638;11.070;2022-10-31T05:32:47;98762.84;;;8.13;100.00
70445;BME280;57902;49.638;11.070;2022-10-31T05:35:36;98761.19;;;8.09;100.00
70445;BME280;57902;49.638;11.070;2022-10-31T05:38:01;98763.78;;;8.08;100.00
70445;BME280;57902;49.638;11.070;2022-10-31T05:40:28;98762.97;;;8.04;100.00
70445;BME280;57902;49.638;11.070;2022-10-31T05:42:56;98760.38;;;8.04;100.00
70445;BME280;57902;49.638;11.070;2022-10-31T05:45:25;98757.88;;;8.01;100.00
70445;BME280;57902;49.638;11.070;2022-10-31T05:47:52;98760.44;;;8.01;100.00
70445;BME280;57902;49.638;11.070;2022-10-31T05:50:19;98761.31;;;7.98;100.00
70445;BME280;57902;49.638;11.070;2022-10-31T05:52:46;98763.03;;;7.98;100.00
70445;BME280;57902;49.638;11.070;2022-10-31T05:55:12;98763.84;;;8.00;100.00
70445;BME280;57902;49.638;11.070;2022-10-31T05:57:39;98769.81;;;8.05;100.00
70445;BME280;57902;49.638;11.070;2022-10-31T06:03:04;98768.09;;;8.04;100.00
70445;BME280;57902;49.638;11.070;2022-10-31T06:05:32;98761.25;;;8.03;100.00
70445;BME280;57902;49.638;11.070;2022-10-31T06:07:59;98765.53;;;8.02;100.00
70445;BME280;57902;49.638;11.070;2022-10-31T06:10:26;98771.50;;;8.04;100.00
70445;BME280;57902;49.638;11.070;2022-10-31T06:12:53;98775.78;;;8.05;100.00
70445;BME280;57902;49.638;11.070;2022-10-31T06:15:19;98768.06;;;8.05;100.00
70445;BME280;57902;49.638;11.070;2022-10-31T06:18:04;98767.25;;;8.05;100.00
70445;BME280;57902;49.638;11.070;2022-10-31T06:20:32;98769.75;;;8.08;100.00
70445;BME280;57902;49.638;11.070;2022-10-31T06:22:59;98768.06;;;8.05;100.00
70445;BME280;57902;49.638;11.070;2022-10-31T06:25:26;98767.22;;;8.06;100.00
70445;BME280;57902;49.638;11.070;2022-10-31T06:27:53;98771.50;;;8.06;100.00
70445;BME280;57902;49.638;11.070;2022-10-31T06:30:20;98771.47;;;8.09;100.00
70445;BME280;57902;49.638;11.070;2022-10-31T06:32:47;98774.81;;;8.16;100.00
70445;BME280;57902;49.638;11.070;2022-10-31T06:35:13;98775.66;;;8.15;100.00
70445;BME280;57902;49.638;11.070;2022-10-31T06:37:40;98779.13;;;8.14;100.00
70445;BME280;57902;49.638;11.070;2022-10-31T06:40:12;98780.78;;;8.15;100.00
70445;BME280;57902;49.638;11.070;2022-10-31T06:42:38;98781.59;;;8.20;100.00
70445;BME280;57902;49.638;11.070;2022-10-31T06:45:05;98784.94;;;8.28;100.00
70445;BME280;57902;49.638;11.070;2022-10-31T06:47:31;98786.56;;;8.37;100.00
70445;BME280;57902;49.638;11.070;2022-10-31T06:50:06;98791.63;;;8.41;100.00
70445;BME280;57902;49.638;11.070;2022-10-31T06:52:33;98793.31;;;8.44;100.00
70445;BME280;57902;49.638;11.070;2022-10-31T06:54:59;98794.16;;;8.46;100.00
70445;BME280;57902;49.638;11.070;2022-10-31T06:57:26;98792.38;;;8.51;100.00
70445;BME280;57902;49.638;11.070;2022-10-31T06:59:52;98793.19;;;8.55;100.00
70445;BME280;57902;49.638;11.070;2022-10-31T07:02:33;98794.88;;;8.59;100.00
70445;BME280;57902;49.638;11.070;2022-10-31T07:05:00;98789.63;;;8.65;100.00
70445;BME280;57902;49.638;11.070;2022-10-31T07:07:26;98789.56;;;8.70;100.00
70445;BME280;57902;49.638;11.070;2022-10-31T07:09:53;98787.75;;;8.75;100.00
70445;BME280;57902;49.638;11.070;2022-10-31T07:12:19;98785.19;;;8.77;100.00
70445;BME280;57902;49.638;11.070;2022-10-31T07:14:46;98783.44;;;8.79;100.00
70445;BME280;57902;49.638;11.070;2022-10-31T07:17:12;98789.38;;;8.85;100.00
70445;BME280;57902;49.638;11.070;2022-10-31T07:19:38;98790.94;;;8.92;100.00
70445;BME280;57902;49.638;11.070;2022-10-31T07:22:05;98792.56;;;8.98;100.00
70445;BME280;57902;49.638;11.070;2022-10-31T07:24:31;98788.25;;;9.02;100.00
70445;BME280;57902;49.638;11.070;2022-10-31T07:26:58;98795.00;;;9.09;100.00
70445;BME280;57902;49.638;11.070;2022-10-31T07:29:29;98790.53;;;9.20;100.00
70445;BME280;57902;49.638;11.070;2022-10-31T07:31:55;98792.00;;;9.34;100.00
70445;BME280;57902;49.638;11.070;2022-10-31T07:34:22;98787.75;;;9.34;100.00
70445;BME280;57902;49.638;11.070;2022-10-31T07:36:50;98787.63;;;9.40;100.00
70445;BME280;57902;49.638;11.070;2022-10-31T07:39:16;98788.53;;;9.38;100.00
70445;BME280;57902;49.638;11.070;2022-10-31T07:41:43;98797.91;;;9.42;100.00
70445;BME280;57902;49.638;11.070;2022-10-31T07:44:09;98803.78;;;9.50;100.00
70445;BME280;57902;49.638;11.070;2022-10-31T07:46:36;98807.09;;;9.55;100.00
70445;BME280;57902;49.638;11.070;2022-10-31T07:49:02;98804.47;;;9.58;100.00
70445;BME280;57902;49.638;11.070;2022-10-31T07:51:29;98805.16;;;9.70;100.00
70445;BME280;57902;49.638;11.070;2022-10-31T07:53:58;98800.78;;;9.75;100.00
70445;BME280;57902;49.638;11.070;2022-10-31T07:56:25;98803.31;;;9.78;100.00
70445;BME280;57902;49.638;11.070;2022-10-31T07:58:51;98798.94;;;9.81;100.00
70445;BME280;57902;49.638;11.070;2022-10-31T08:01:17;98807.50;;;9.82;100.00
70445;BME280;57902;49.638;11.070;2022-10-31T08:03:44;98806.50;;;9.89;100.00
70445;BME280;57902;49.638;11.070;2022-10-31T08:06:10;98801.19;;;9.98;100.00
70445;BME280;57902;49.638;11.070;2022-10-31T08:08:37;98800.22;;;10.06;100.00
70445;BME280;57902;49.638;11.070;2022-10-31T08:11:03;98795.75;;;10.14;100.00
70445;BME280;57902;49.638;11.070;2022-10-31T08:13:30;98791.25;;;10.24;100.00
70445;BME280;57902;49.638;11.070;2022-10-31T08:15:57;98790.41;;;10.23;100.00
70445;BME280;57902;49.638;11.070;2022-10-31T08:18:29;98781.03;;;10.21;100.00
70445;BME280;57902;49.638;11.070;2022-10-31T08:20:56;98783.63;;;10.19;100.00
70445;BME280;57902;49.638;11.070;2022-10-31T08:23:22;98786.88;;;10.27;100.00
70445;BME280;57902;49.638;11.070;2022-10-31T08:25:49;98777.44;;;10.28;100.00
70445;BME280;57902;49.638;11.070;2022-10-31T08:28:15;98781.06;;;10.19;100.00
70445;BME280;57902;49.638;11.070;2022-10-31T08:30:42;98786.03;;;10.27;100.00
70445;BME280;57902;49.638;11.070;2022-10-31T08:33:12;98780.16;;;10.20;100.00
70445;BME280;57902;49.638;11.070;2022-10-31T08:35:39;98776.47;;;10.32;100.00
70445;BME280;57902;49.638;11.070;2022-10-31T08:38:07;98782.38;;;10.40;100.00
70445;BME280;57902;49.638;11.070;2022-10-31T08:40:34;98773.53;;;10.52;100.00
70445;BME280;57902;49.638;11.070;2022-10-31T08:43:02;98784.38;;;10.66;100.00
70445;BME280;57902;49.638;11.070;2022-10-31T08:45:30;98772.19;;;10.75;100.00
70445;BME280;57902;49.638;11.070;2022-10-31T08:47:59;98771.09;;;10.83;100.00
70445;BME280;57902;49.638;11.070;2022-10-31T08:50:27;98782.81;;;10.98;100.00
70445;BME280;57902;49.638;11.070;2022-10-31T08:53:15;98775.69;;;11.08;100.00
70445;BME280;57902;49.638;11.070;2022-10-31T08:55:43;98775.53;;;11.16;100.00
70445;BME280;57902;49.638;11.070;2022-10-31T08:58:12;98771.09;;;11.21;100.00
70445;BME280;57902;49.638;11.070;2022-10-31T09:00:39;98771.88;;;11.23;100.00
70445;BME280;57902;49.638;11.070;2022-10-31T09:03:11;98772.47;;;11.34;100.00
70445;BME280;57902;49.638;11.070;2022-10-31T09:05:38;98767.47;;;11.28;100.00
70445;BME280;57902;49.638;11.070;2022-10-31T09:08:06;98771.50;;;11.40;100.00
70445;BME280;57902;49.638;11.070;2022-10-31T09:10:41;98775.41;;;11.55;100.00
70445;BME280;57902;49.638;11.070;2022-10-31T09:13:14;98781.09;;;11.68;100.00
70445;BME280;57902;49.638;11.070;2022-10-31T09:15:43;98772.06;;;11.84;100.00
70445;BME280;57902;49.638;11.070;2022-10-31T09:18:11;98771.50;;;12.06;100.00
70445;BME280;57902;49.638;11.070;2022-10-31T09:20:39;98764.47;;;12.11;100.00
70445;BME280;57902;49.638;11.070;2022-10-31T09:23:09;98759.66;;;12.29;100.00
70445;BME280;57902;49.638;11.070;2022-10-31T09:25:36;98760.03;;;12.46;100.00
70445;BME280;57902;49.638;11.070;2022-10-31T09:28:05;98761.03;;;12.70;100.00
70445;BME280;57902;49.638;11.070;2022-10-31T09:30:33;98756.97;;;12.90;98.31
70445;BME280;57902;49.638;11.070;2022-10-31T09:33:06;98759.94;;;13.06;99.31
70445;BME280;57902;49.638;11.070;2022-10-31T09:35:33;98766.09;;;13.28;99.02
70445;BME280;57902;49.638;11.070;2022-10-31T09:38:05;98758.94;;;13.37;96.44
70445;BME280;57902;49.638;11.070;2022-10-31T09:40:41;98763.94;;;13.68;96.89
70445;BME280;57902;49.638;11.070;2022-10-31T09:46:04;98756.19;;;13.92;95.62
70445;BME280;57902;49.638;11.070;2022-10-31T09:51:27;98754.06;;;14.27;95.39
70445;BME280;57902;49.638;11.070;2022-10-31T09:54:14;98748.69;;;14.55;93.68
70445;BME280;57902;49.638;11.070;2022-10-31T09:56:43;98747.06;;;14.52;95.75
70445;BME280;57902;49.638;11.070;2022-10-31T09:59:34;98749.41;;;14.59;95.36
70445;BME280;57902;49.638;11.070;2022-10-31T10:02:27;98746.72;;;14.62;95.78
70445;BME280;57902;49.638;11.070;2022-10-31T10:04:59;98744.31;;;14.79;94.33
70445;BME280;57902;49.638;11.070;2022-10-31T10:07:54;98744.38;;;14.78;95.25
70445;BME280;57902;49.638;11.070;2022-10-31T10:10:48;98731.34;;;14.79;96.12
70445;BME280;57902;49.638;11.070;2022-10-31T10:13:36;98739.38;;;14.95;96.22
70445;BME280;57902;49.638;11.070;2022-10-31T10:21:48;98734.94;;;15.40;93.58
70445;BME280;57902;49.638;11.070;2022-10-31T10:26:53;98730.25;;;15.48;94.22
70445;BME280;57902;49.638;11.070;2022-10-31T10:29:34;98726.28;;;15.60;93.20
70445;BME280;57902;49.638;11.070;2022-10-31T10:32:16;98720.25;;;15.60;93.96
70445;BME280;57902;49.638;11.070;2022-10-31T10:35:22;98716.63;;;15.64;94.29
70445;BME280;57902;49.638;11.070;2022-10-31T10:37:41;98718.75;;;15.74;94.44
70445;BME280;57902;49.638;11.070;2022-10-31T10:40:17;98726.47;;;15.76;94.10
70445;BME280;57902;49.638;11.070;2022-10-31T10:43:41;98714.38;;;15.75;94.35
70445;BME280;57902;49.638;11.070;2022-10-31T10:46:19;98712.13;;;15.88;94.52
70445;BME280;57902;49.638;11.070;2022-10-31T10:55:29;98692.00;;;16.12;93.45
70445;BME280;57902;49.638;11.070;2022-10-31T10:58:04;98686.06;;;16.27;93.45
70445;BME280;57902;49.638;11.070;2022-10-31T11:00:41;98686.81;;;16.30;92.90
70445;BME280;57902;49.638;11.070;2022-10-31T11:03:09;98685.56;;;16.38;92.96
70445;BME280;57902;49.638;11.070;2022-10-31T11:05:39;98678.16;;;16.48;91.96
70445;BME280;57902;49.638;11.070;2022-10-31T11:08:07;98673.94;;;16.45;92.19
70445;BME280;57902;49.638;11.070;2022-10-31T11:10:34;98669.31;;;16.52;91.84
70445;BME280;57902;49.638;11.070;2022-10-31T11:16:51;98668.09;;;16.59;92.42
70445;BME280;57902;49.638;11.070;2022-10-31T11:18:46;98665.34;;;16.62;92.17
70445;BME280;57902;49.638;11.070;2022-10-31T11:23:47;98660.38;;;16.75;91.55
70445;BME280;57902;49.638;11.070;2022-10-31T11:26:20;98650.50;;;16.82;90.69
70445;BME280;57902;49.638;11.070;2022-10-31T11:28:57;98644.88;;;16.91;89.50
70445;BME280;57902;49.638;11.070;2022-10-31T11:31:25;98642.13;;;16.94;88.59
70445;BME280;57902;49.638;11.070;2022-10-31T11:33:58;98634.47;;;16.91;89.42
70445;BME280;57902;49.638;11.070;2022-10-31T11:36:44;98636.13;;;16.92;90.01
70445;BME280;57902;49.638;11.070;2022-10-31T11:39:19;98630.16;;;17.08;88.71
70445;BME280;57902;49.638;11.070;2022-10-31T11:41:48;98624.97;;;17.08;89.19
70445;BME280;57902;49.638;11.070;2022-10-31T11:44:21;98626.84;;;17.22;87.53
70445;BME280;57902;49.638;11.070;2022-10-31T11:46:54;98622.34;;;17.25;88.74
70445;BME280;57902;49.638;11.070;2022-10-31T11:49:37;98618.28;;;17.20;89.54
70445;BME280;57902;49.638;11.070;2022-10-31T11:52:22;98614.38;;;17.28;87.79
70445;BME280;57902;49.638;11.070;2022-10-31T11:55:01;98608.25;;;17.45;86.17
70445;BME280;57902;49.638;11.070;2022-10-31T11:57:41;98600.06;;;17.53;85.77
70445;BME280;57902;49.638;11.070;2022-10-31T12:02:50;98606.97;;;17.37;85.68
70445;BME280;57902;49.638;11.070;2022-10-31T12:05:20;98599.69;;;17.43;86.09
70445;BME280;57902;49.638;11.070;2022-10-31T12:07:48;98598.34;;;17.52;85.67
70445;BME280;57902;49.638;11.070;2022-10-31T12:10:16;98586.94;;;17.55;86.12
70445;BME280;57902;49.638;11.070;2022-10-31T12:13:05;98586.06;;;17.54;85.76
70445;BME280;57902;49.638;11.070;2022-10-31T12:15:38;98578.88;;;17.59;85.36
70445;BME280;57902;49.638;11.070;2022-10-31T12:18:36;98581.22;;;17.64;84.43
70445;BME280;57902;49.638;11.070;2022-10-31T12:28:54;98565.72;;;17.94;81.80
70445;BME280;57902;49.638;11.070;2022-10-31T12:31:34;98570.66;;;17.99;81.27
70445;BME280;57902;49.638;11.070;2022-10-31T12:34:45;98561.31;;;17.95;81.94
70445;BME280;57902;49.638;11.070;2022-10-31T12:37:30;98564.75;;;17.95;82.27
70445;BME280;57902;49.638;11.070;2022-10-31T12:40:23;98549.97;;;17.96;82.38
70445;BME280;57902;49.638;11.070;2022-10-31T12:45:50;98549.72;;;18.00;81.93
70445;BME280;57902;49.638;11.070;2022-10-31T12:57:06;98529.09;;;18.12;81.85
70445;BME280;57902;49.638;11.070;2022-10-31T12:59:39;98525.91;;;17.91;80.76
70445;BME280;57902;49.638;11.070;2022-10-31T13:02:20;98519.69;;;17.93;82.07
70445;BME280;57902;49.638;11.070;2022-10-31T13:04:54;98518.97;;;18.06;81.90
70445;BME280;57902;49.638;11.070;2022-10-31T13:08:01;98510.22;;;18.07;82.25
70445;BME280;57902;49.638;11.070;2022-10-31T13:10:32;98509.03;;;18.12;82.29
70445;BME280;57902;49.638;11.070;2022-10-31T13:13:10;98509.69;;;18.16;81.66
70445;BME280;57902;49.638;11.070;2022-10-31T13:16:01;98506.00;;;18.20;81.63
70445;BME280;57902;49.638;11.070;2022-10-31T13:18:47;98510.50;;;18.02;82.25
70445;BME280;57902;49.638;11.070;2022-10-31T13:24:38;98500.50;;;17.94;81.10
70445;BME280;57902;49.638;11.070;2022-10-31T13:27:54;98504.94;;;17.92;80.38
70445;BME280;57902;49.638;11.070;2022-10-31T13:30:25;98491.41;;;17.70;82.08
70445;BME280;57902;49.638;11.070;2022-10-31T13:32:59;98491.66;;;17.65;82.63
70445;BME280;57902;49.638;11.070;2022-10-31T13:35:29;98490.81;;;17.64;81.90
70445;BME280;57902;49.638;11.070;2022-10-31T13:40:54;98494.19;;;17.66;82.06
70445;BME280;57902;49.638;11.070;2022-10-31T13:43:46;98488.88;;;17.52;82.79
70445;BME280;57902;49.638;11.070;2022-10-31T13:48:59;98488.03;;;17.36;83.61
70445;BME280;57902;49.638;11.070;2022-10-31T13:51:31;98476.94;;;17.32;83.41
70445;BME280;57902;49.638;11.070;2022-10-31T13:54:20;98468.53;;;17.27;83.65
70445;BME280;57902;49.638;11.070;2022-10-31T13:56:53;98468.00;;;17.20;84.23
70445;BME280;57902;49.638;11.070;2022-10-31T13:59:23;98468.78;;;17.22;84.13
70445;BME280;57902;49.638;11.070;2022-10-31T14:02:02;98472.94;;;17.09;85.05
70445;BME280;57902;49.638;11.070;2022-10-31T14:04:53;98467.16;;;17.04;84.82
70445;BME280;57902;49.638;11.070;2022-10-31T14:07:22;98458.91;;;16.95;85.59
70445;BME280;57902;49.638;11.070;2022-10-31T14:12:40;98458.22;;;16.92;85.57
70445;BME280;57902;49.638;11.070;2022-10-31T14:20:40;98450.28;;;16.77;87.00
70445;BME280;57902;49.638;11.070;2022-10-31T14:28:44;98434.72;;;16.76;87.61
70445;BME280;57902;49.638;11.070;2022-10-31T14:45:09;98420.75;;;16.61;89.64
70445;BME280;57902;49.638;11.070;2022-10-31T14:50:45;98409.81;;;16.54;89.94
70445;BME280;57902;49.638;11.070;2022-10-31T14:53:34;98403.09;;;16.50;90.62
70445;BME280;57902;49.638;11.070;2022-10-31T14:56:09;98407.84;;;16.42;91.37
70445;BME280;57902;49.638;11.070;2022-10-31T14:58:46;98400.81;;;16.44;91.68
70445;BME280;57902;49.638;11.070;2022-10-31T15:01:28;98396.66;;;16.40;92.07
70445;BME280;57902;49.638;11.070;2022-10-31T15:04:00;98396.41;;;16.29;93.07
70445;BME280;57902;49.638;11.070;2022-10-31T15:07:16;98395.88;;;16.22;93.83
70445;BME280;57902;49.638;11.070;2022-10-31T15:09:57;98395.44;;;16.14;94.57